Time;durP1;ratioP1;P1;durP2;ratioP2;P2;SDS_P1;SDS_P2;PMS_P1;PMS_P2;Temp;Humidity;BMP_temperature;BMP_pressure;BME280_temperature;BME280_humidity;BME280_pressure;Samples;Min_cycle;Max_cycle;Signal;HPM_P1;HPM_P2
2022/07/12 02:04:24;;;;;;;;;;;;;;;20.80;100.00;98650.69;4836225;29;19971;-70
2022/07/12 02:06:51;;;;;;;;;;;;;;;20.82;100.00;98659.53;4842594;29;19958;-70
2022/07/12 02:09:19;;;;;;;;;;;;;;;20.79;100.00;98659.63;4836945;29;20370;-71
2022/07/12 02:11:47;;;;;;;;;;;;;;;20.77;100.00;98665.00;4838855;29;19951;-71
2022/07/12 02:14:14;;;;;;;;;;;;;;;20.80;100.00;98664.09;4830123;29;19951;-71
2022/07/12 02:16:42;;;;;;;;;;;;;;;20.81;100.00;98666.47;4827316;29;19965;-71
2022/07/12 02:19:10;;;;;;;;;;;;;;;20.76;100.00;98666.25;4839914;29;19968;-70
2022/07/12 02:21:37;;;;;;;;;;;;;;;20.85;100.00;98663.50;4844310;29;19952;-70
2022/07/12 02:24:05;;;;;;;;;;;;;;;20.80;100.00;98672.63;4828062;29;19957;-71
2022/07/12 02:26:34;;;;;;;;;;;;;;;20.84;100.00;98670.44;4846094;29;20342;-70
2022/07/12 02:29:02;;;;;;;;;;;;;;;20.72;100.00;98672.06;4845852;29;19952;-71
2022/07/12 02:31:30;;;;;;;;;;;;;;;20.59;100.00;98668.41;4842601;29;19954;-71
2022/07/12 02:33:57;;;;;;;;;;;;;;;20.56;100.00;98671.41;4845689;29;19954;-71
2022/07/12 02:36:25;;;;;;;;;;;;;;;20.59;100.00;98674.09;4844121;29;20499;-71
2022/07/12 02:38:52;;;;;;;;;;;;;;;20.49;100.00;98671.63;4837326;29;20343;-71
2022/07/12 02:41:19;;;;;;;;;;;;;;;20.45;100.00;98674.56;4845912;29;19955;-71
2022/07/12 02:43:47;;;;;;;;;;;;;;;20.41;100.00;98673.91;4844965;29;19958;-71
2022/07/12 02:46:14;;;;;;;;;;;;;;;20.42;100.00;98672.63;4845763;29;20237;-71
2022/07/12 02:48:41;;;;;;;;;;;;;;;20.47;100.00;98674.91;4839919;29;20253;-70
2022/07/12 02:51:09;;;;;;;;;;;;;;;20.49;100.00;98674.47;4846725;29;19952;-70
2022/07/12 02:53:37;;;;;;;;;;;;;;;20.50;100.00;98670.38;4845371;29;20347;-71
2022/07/12 02:56:08;;;;;;;;;;;;;;;20.46;100.00;98681.88;4843018;29;19948;-71
2022/07/12 02:58:36;;;;;;;;;;;;;;;20.40;100.00;98682.88;4845185;29;19971;-71
2022/07/12 03:01:03;;;;;;;;;;;;;;;20.45;100.00;98693.66;4847611;29;19957;-71
2022/07/12 03:03:30;;;;;;;;;;;;;;;20.47;100.00;98683.44;4848245;29;19968;-71
2022/07/12 03:05:58;;;;;;;;;;;;;;;20.51;100.00;98686.97;4847808;29;20248;-70
2022/07/12 03:08:25;;;;;;;;;;;;;;;20.51;100.00;98680.50;4847328;29;20452;-70
2022/07/12 03:10:52;;;;;;;;;;;;;;;20.50;100.00;98687.41;4847975;29;20338;-70
2022/07/12 03:13:20;;;;;;;;;;;;;;;20.48;100.00;98684.25;4846880;29;19952;-71
2022/07/12 03:15:47;;;;;;;;;;;;;;;20.38;100.00;98686.19;4847829;29;19961;-70
2022/07/12 03:18:14;;;;;;;;;;;;;;;20.33;100.00;98698.09;4830600;29;19959;-70
2022/07/12 03:20:41;;;;;;;;;;;;;;;20.39;100.00;98699.13;4843810;29;20363;-70
2022/07/12 03:23:09;;;;;;;;;;;;;;;20.41;100.00;98701.50;4847140;29;19951;-70
2022/07/12 03:25:36;;;;;;;;;;;;;;;20.28;100.00;98710.81;4844274;29;19960;-70
2022/07/12 03:28:03;;;;;;;;;;;;;;;20.21;100.00;98705.34;4845875;29;19958;-70
2022/07/12 03:30:31;;;;;;;;;;;;;;;20.18;100.00;98709.06;4843460;29;19957;-71
2022/07/12 03:32:58;;;;;;;;;;;;;;;20.08;100.00;98707.34;4846064;29;19956;-71
2022/07/12 03:35:25;;;;;;;;;;;;;;;20.03;100.00;98716.44;4844719;29;19949;-71
2022/07/12 03:37:53;;;;;;;;;;;;;;;19.95;100.00;98711.44;4845033;29;19950;-70
2022/07/12 03:40:20;;;;;;;;;;;;;;;19.93;100.00;98711.84;4846836;29;19977;-70
2022/07/12 03:42:48;;;;;;;;;;;;;;;19.79;100.00;98712.28;4841947;29;19956;-70
2022/07/12 03:45:16;;;;;;;;;;;;;;;19.80;100.00;98708.22;4836183;29;20258;-70
2022/07/12 03:47:43;;;;;;;;;;;;;;;19.84;100.00;98714.56;4844624;29;19966;-71
2022/07/12 03:50:12;;;;;;;;;;;;;;;19.86;100.00;98714.09;4837652;29;19950;-71
2022/07/12 03:52:41;;;;;;;;;;;;;;;19.91;100.00;98722.06;4829042;29;19953;-70
2022/07/12 03:55:09;;;;;;;;;;;;;;;19.90;100.00;98721.31;4844279;29;19955;-70
2022/07/12 03:57:37;;;;;;;;;;;;;;;19.87;100.00;98719.34;4844643;29;19951;-70
2022/07/12 04:00:08;;;;;;;;;;;;;;;19.93;100.00;98720.38;4843608;29;19962;-71
2022/07/12 04:02:35;;;;;;;;;;;;;;;19.86;100.00;98722.63;4840199;29;19977;-70
2022/07/12 04:05:03;;;;;;;;;;;;;;;19.97;100.00;98723.94;4845759;29;19951;-70
2022/07/12 04:07:30;;;;;;;;;;;;;;;19.94;100.00;98721.19;4838234;29;20517;-70
2022/07/12 04:09:57;;;;;;;;;;;;;;;19.94;100.00;98719.13;4844201;29;19953;-70
2022/07/12 04:12:25;;;;;;;;;;;;;;;19.98;100.00;98725.50;4837738;29;19947;-70
2022/07/12 04:14:52;;;;;;;;;;;;;;;20.02;100.00;98731.88;4837367;29;20351;-71
2022/07/12 04:17:19;;;;;;;;;;;;;;;20.16;100.00;98736.34;4843799;29;19949;-70
2022/07/12 04:19:46;;;;;;;;;;;;;;;20.28;100.00;98732.75;4844824;29;19967;-70
2022/07/12 04:22:14;;;;;;;;;;;;;;;20.33;100.00;98737.88;4832260;29;19950;-70
2022/07/12 04:24:41;;;;;;;;;;;;;;;20.32;100.00;98739.09;4841797;29;19954;-70
2022/07/12 04:27:08;;;;;;;;;;;;;;;20.38;100.00;98737.31;4844809;29;20222;-70
2022/07/12 04:29:35;;;;;;;;;;;;;;;20.34;100.00;98741.50;4845346;29;19950;-70
2022/07/12 04:32:03;;;;;;;;;;;;;;;20.35;100.00;98741.03;4844134;29;19949;-71
2022/07/12 04:34:30;;;;;;;;;;;;;;;20.43;100.00;98748.09;4840385;29;19951;-70
2022/07/12 04:36:57;;;;;;;;;;;;;;;20.46;100.00;98760.59;4844188;29;19956;-70
2022/07/12 04:39:24;;;;;;;;;;;;;;;20.49;100.00;98748.34;4841523;29;19966;-71
2022/07/12 04:41:52;;;;;;;;;;;;;;;20.53;100.00;98751.84;4838800;29;20224;-71
2022/07/12 04:44:19;;;;;;;;;;;;;;;20.73;100.00;98746.75;4844770;29;19948;-71
2022/07/12 04:46:46;;;;;;;;;;;;;;;21.01;100.00;98737.28;4845456;29;20271;-71
2022/07/12 04:49:13;;;;;;;;;;;;;;;21.23;100.00;98741.00;4842852;29;19957;-70
2022/07/12 04:51:41;;;;;;;;;;;;;;;21.42;100.00;98736.31;4844670;29;20324;-71
2022/07/12 04:54:08;;;;;;;;;;;;;;;21.58;100.00;98739.78;4843389;29;19956;-71
2022/07/12 04:56:35;;;;;;;;;;;;;;;21.79;100.00;98743.88;4843364;29;19949;-71
2022/07/12 04:59:03;;;;;;;;;;;;;;;21.93;100.00;98749.09;4828777;29;19949;-71
2022/07/12 05:01:30;;;;;;;;;;;;;;;22.49;100.00;98748.97;4844795;29;19975;-71
2022/07/12 05:03:58;;;;;;;;;;;;;;;23.09;100.00;98749.38;4843817;29;19969;-71
2022/07/12 05:06:25;;;;;;;;;;;;;;;23.76;100.00;98759.97;4845206;29;19955;-71
2022/07/12 05:08:52;;;;;;;;;;;;;;;24.29;100.00;98764.09;4842990;29;19949;-71
2022/07/12 05:11:20;;;;;;;;;;;;;;;24.78;100.00;98769.53;4837137;29;19963;-71
2022/07/12 05:13:47;;;;;;;;;;;;;;;25.06;100.00;98765.31;4842526;29;19948;-71
2022/07/12 05:16:14;;;;;;;;;;;;;;;25.49;100.00;98768.88;4845126;29;19957;-71
2022/07/12 05:18:41;;;;;;;;;;;;;;;25.79;100.00;98773.44;4843785;29;19955;-71
2022/07/12 05:21:09;;;;;;;;;;;;;;;25.87;100.00;98763.97;4841518;29;19966;-71
2022/07/12 05:23:36;;;;;;;;;;;;;;;26.36;100.00;98765.47;4834929;29;19957;-71
2022/07/12 05:26:03;;;;;;;;;;;;;;;26.36;100.00;98765.47;4837683;29;19956;-71
2022/07/12 05:28:30;;;;;;;;;;;;;;;25.90;100.00;98765.06;4836561;29;19963;-71
2022/07/12 05:30:58;;;;;;;;;;;;;;;25.86;100.00;98773.84;4844460;29;19949;-71
2022/07/12 05:33:25;;;;;;;;;;;;;;;25.72;100.00;98768.88;4843971;29;20386;-71
2022/07/12 05:35:52;;;;;;;;;;;;;;;25.48;100.00;98773.81;4837124;29;19957;-71
2022/07/12 05:38:19;;;;;;;;;;;;;;;25.39;100.00;98776.72;4840081;29;19949;-71
2022/07/12 05:40:47;;;;;;;;;;;;;;;25.68;100.00;98771.13;4839644;29;20381;-71
2022/07/12 05:43:15;;;;;;;;;;;;;;;25.39;100.00;98780.38;4839699;29;19967;-71
2022/07/12 05:45:43;;;;;;;;;;;;;;;25.26;100.00;98790.47;4838997;29;19957;-71
2022/07/12 05:48:10;;;;;;;;;;;;;;;25.53;100.00;98787.47;4841677;29;19953;-71
2022/07/12 05:50:37;;;;;;;;;;;;;;;25.19;100.00;98780.16;4843569;29;19955;-71
2022/07/12 05:53:23;;;;;;;;;;;;;;;25.32;100.00;98791.38;4842395;29;19947;-71
2022/07/12 05:55:51;;;;;;;;;;;;;;;25.31;100.00;98792.66;4840627;29;19947;-71
2022/07/12 05:58:18;;;;;;;;;;;;;;;25.45;100.00;98794.84;4841015;29;20362;-71
2022/07/12 06:00:46;;;;;;;;;;;;;;;25.80;100.00;98797.97;4841448;29;19974;-71
2022/07/12 06:03:14;;;;;;;;;;;;;;;26.06;100.00;98793.28;4841799;29;19979;-71
2022/07/12 06:05:41;;;;;;;;;;;;;;;25.96;100.00;98800.38;4842072;29;19951;-71
2022/07/12 06:08:09;;;;;;;;;;;;;;;25.90;100.00;98797.38;4844673;29;19957;-71
2022/07/12 06:10:36;;;;;;;;;;;;;;;25.55;100.00;98795.59;4828311;29;20262;-71
2022/07/12 06:13:03;;;;;;;;;;;;;;;24.76;100.00;98794.94;4845116;29;19950;-71
2022/07/12 06:15:31;;;;;;;;;;;;;;;25.03;100.00;98809.19;4828649;29;19949;-71
2022/07/12 06:18:00;;;;;;;;;;;;;;;24.93;100.00;98807.63;4845107;29;19955;-71
2022/07/12 06:20:27;;;;;;;;;;;;;;;25.00;100.00;98820.78;4843588;29;19970;-71
2022/07/12 06:22:55;;;;;;;;;;;;;;;25.00;100.00;98824.44;4831300;29;20272;-71
2022/07/12 06:25:22;;;;;;;;;;;;;;;25.00;100.00;98823.66;4844996;29;19964;-71
2022/07/12 06:28:10;;;;;;;;;;;;;;;25.11;100.00;98830.47;4831916;29;19945;-71
2022/07/12 06:30:37;;;;;;;;;;;;;;;25.05;100.00;98826.66;4845003;29;19952;-71
2022/07/12 06:33:05;;;;;;;;;;;;;;;24.82;100.00;98835.19;4844868;29;20253;-71
2022/07/12 06:35:33;;;;;;;;;;;;;;;24.48;100.00;98824.88;4844377;29;19954;-71
2022/07/12 06:38:01;;;;;;;;;;;;;;;24.32;100.00;98816.66;4843873;29;19947;-71
2022/07/12 06:40:28;;;;;;;;;;;;;;;24.23;100.00;98808.09;4843996;29;19964;-71
2022/07/12 06:42:56;;;;;;;;;;;;;;;23.94;100.00;98817.13;4844745;29;19948;-71
2022/07/12 06:45:24;;;;;;;;;;;;;;;23.97;100.00;98819.00;4844139;29;19962;-71
2022/07/12 06:47:51;;;;;;;;;;;;;;;24.13;100.00;98828.09;4844496;29;19950;-71
2022/07/12 06:50:39;;;;;;;;;;;;;;;24.08;100.00;98830.81;5150093;24;19984;31
2022/07/12 06:53:07;;;;;;;;;;;;;;;24.14;100.00;98832.53;4805770;29;20229;-70
2022/07/12 06:55:34;;;;;;;;;;;;;;;23.87;100.00;98831.69;4808516;29;20388;-70
2022/07/12 06:58:01;;;;;;;;;;;;;;;23.24;100.00;98829.47;4808501;29;19969;-71
2022/07/12 07:00:28;;;;;;;;;;;;;;;23.64;100.00;98823.75;4808156;29;20376;-71
2022/07/12 07:02:56;;;;;;;;;;;;;;;23.72;100.00;98831.53;4808586;29;19953;-71
2022/07/12 07:05:23;;;;;;;;;;;;;;;23.76;100.00;98831.38;4810796;29;19958;-71
2022/07/12 07:07:50;;;;;;;;;;;;;;;23.86;100.00;98842.34;4812478;29;19949;-71
2022/07/12 07:10:18;;;;;;;;;;;;;;;24.13;100.00;98836.66;4811678;29;19953;-71
2022/07/12 07:12:45;;;;;;;;;;;;;;;24.12;100.00;98837.16;4811772;29;19949;-71
2022/07/12 07:15:15;;;;;;;;;;;;;;;24.16;100.00;98841.44;4811377;29;19949;-71
2022/07/12 07:17:42;;;;;;;;;;;;;;;24.00;100.00;98844.56;4811947;29;19957;-71
2022/07/12 07:20:10;;;;;;;;;;;;;;;23.84;100.00;98842.00;4811271;29;20034;-71
2022/07/12 07:22:38;;;;;;;;;;;;;;;24.12;100.00;98843.66;4811611;29;19984;-71
2022/07/12 07:25:05;;;;;;;;;;;;;;;23.99;100.00;98850.75;4811368;29;20253;-71
2022/07/12 07:27:32;;;;;;;;;;;;;;;23.63;100.00;98842.94;4811714;29;19951;-71
2022/07/12 07:32:46;;;;;;;;;;;;;;;23.52;100.00;98836.91;4811859;29;20248;-71
2022/07/12 07:35:16;;;;;;;;;;;;;;;23.18;100.00;98837.09;4811892;29;19956;-71
2022/07/12 07:37:43;;;;;;;;;;;;;;;23.26;100.00;98836.31;4811164;29;19953;-71
2022/07/12 07:40:10;;;;;;;;;;;;;;;23.00;100.00;98837.00;4810955;29;19947;-71
2022/07/12 07:42:38;;;;;;;;;;;;;;;23.15;100.00;98843.72;4811392;29;19950;-71
2022/07/12 07:45:07;;;;;;;;;;;;;;;23.36;100.00;98846.53;4811665;29;19965;-71
2022/07/12 07:47:48;;;;;;;;;;;;;;;23.70;100.00;98848.34;4811919;29;19956;-71
2022/07/12 07:50:31;;;;;;;;;;;;;;;23.91;100.00;98850.28;4810840;29;19958;-71
2022/07/12 07:52:59;;;;;;;;;;;;;;;24.11;100.00;98853.50;4811603;29;19968;-71
2022/07/12 07:55:26;;;;;;;;;;;;;;;24.65;100.00;98857.56;4811742;29;19955;-71
2022/07/12 07:57:54;;;;;;;;;;;;;;;24.77;100.00;98865.22;4795648;29;19955;-71
2022/07/12 08:00:21;;;;;;;;;;;;;;;24.80;100.00;98867.09;4810935;29;19949;-71
2022/07/12 08:02:48;;;;;;;;;;;;;;;24.26;100.00;98865.06;4811193;29;19961;-71
2022/07/12 08:05:16;;;;;;;;;;;;;;;24.44;100.00;98867.13;4810665;29;19956;-71
2022/07/12 08:07:44;;;;;;;;;;;;;;;24.54;100.00;98869.53;4810709;29;19950;-71
2022/07/12 08:10:20;;;;;;;;;;;;;;;24.59;100.00;98863.16;4811106;29;19948;-70
2022/07/12 08:12:47;;;;;;;;;;;;;;;24.75;100.00;98862.00;4810615;29;19950;-70
2022/07/12 08:15:14;;;;;;;;;;;;;;;24.86;100.00;98862.34;4810655;29;19958;-71
2022/07/12 08:17:41;;;;;;;;;;;;;;;24.72;100.00;98869.47;4794471;29;19948;-71
2022/07/12 08:20:11;;;;;;;;;;;;;;;24.48;100.00;98871.41;4795122;29;20365;-71
2022/07/12 08:22:54;;;;;;;;;;;;;;;24.76;100.00;98872.97;4811252;29;20364;-71
2022/07/12 08:25:21;;;;;;;;;;;;;;;24.74;100.00;98878.38;4810300;29;19957;-71
2022/07/12 08:27:49;;;;;;;;;;;;;;;24.82;100.00;98873.13;4810755;29;19985;-71
2022/07/12 08:30:16;;;;;;;;;;;;;;;24.75;100.00;98867.72;4810087;29;19949;-71
2022/07/12 08:32:46;;;;;;;;;;;;;;;24.96;100.00;98869.63;4810683;29;19954;-71
2022/07/12 08:35:14;;;;;;;;;;;;;;;25.13;100.00;98864.31;4810341;29;19948;-71
2022/07/12 08:37:42;;;;;;;;;;;;;;;25.13;100.00;98867.97;4810980;29;20330;-71
2022/07/12 08:40:10;;;;;;;;;;;;;;;25.26;100.00;98862.03;4810685;29;19948;-71
2022/07/12 08:42:41;;;;;;;;;;;;;;;25.41;100.00;98860.84;4809908;29;19964;-71
2022/07/12 08:45:09;;;;;;;;;;;;;;;25.64;100.00;98856.47;4810378;29;19971;-71
2022/07/12 08:47:37;;;;;;;;;;;;;;;25.63;100.00;98859.81;4810449;29;20258;-71
2022/07/12 08:50:11;;;;;;;;;;;;;;;25.28;100.00;98860.28;4811022;29;19949;-71
2022/07/12 08:52:43;;;;;;;;;;;;;;;25.09;100.00;98860.84;4807788;29;20267;-71
2022/07/12 08:55:23;;;;;;;;;;;;;;;25.36;100.00;98860.69;4810204;29;19957;-71
2022/07/12 08:57:52;;;;;;;;;;;;;;;25.08;100.00;98862.09;4799077;29;19957;-71
2022/07/12 09:00:20;;;;;;;;;;;;;;;25.00;100.00;98855.94;4810576;29;19958;-71
2022/07/12 09:02:55;;;;;;;;;;;;;;;25.03;100.00;98863.56;4794413;29;19990;-71
2022/07/12 09:05:23;;;;;;;;;;;;;;;25.36;100.00;98852.91;4810243;29;19953;-71
2022/07/12 09:07:51;;;;;;;;;;;;;;;25.79;100.00;98862.25;4810210;29;19947;-71
2022/07/12 09:10:18;;;;;;;;;;;;;;;25.87;100.00;98866.34;4810410;29;19949;-71
2022/07/12 09:12:46;;;;;;;;;;;;;;;25.41;100.00;98868.63;4810234;29;20222;-71
2022/07/12 09:15:14;;;;;;;;;;;;;;;25.60;100.00;98866.53;4809540;29;19948;-71
2022/07/12 09:17:46;;;;;;;;;;;;;;;25.56;100.00;98874.47;4809513;29;19951;-70
2022/07/12 09:20:14;;;;;;;;;;;;;;;25.46;100.00;98875.81;4809513;29;19950;-71
2022/07/12 09:22:47;;;;;;;;;;;;;;;25.48;100.00;98871.16;4810277;29;19995;-71
2022/07/12 09:25:18;;;;;;;;;;;;;;;25.59;100.00;98873.50;4809974;29;19982;-71
2022/07/12 09:27:52;;;;;;;;;;;;;;;25.70;100.00;98868.81;4809838;29;20031;-71
2022/07/12 09:30:21;;;;;;;;;;;;;;;25.35;100.00;98873.44;4809991;29;19958;-71
2022/07/12 09:38:29;;;;;;;;;;;;;;;25.55;100.00;98876.56;4809599;29;19948;-71
2022/07/12 09:40:57;;;;;;;;;;;;;;;25.70;100.00;98868.81;4809358;29;20371;-71
2022/07/12 09:43:25;;;;;;;;;;;;;;;25.89;100.00;98878.13;4809280;29;19964;-71
2022/07/12 09:45:52;;;;;;;;;;;;;;;26.06;100.00;98882.13;4809638;29;19982;-71
2022/07/12 09:48:20;;;;;;;;;;;;;;;26.17;100.00;98878.72;4809212;29;19963;-71
2022/07/12 09:50:49;;;;;;;;;;;;;;;26.17;100.00;98879.53;4809023;29;19955;-71
2022/07/12 09:53:21;;;;;;;;;;;;;;;26.30;100.00;98882.94;4809353;29;19956;-71
2022/07/12 09:55:49;;;;;;;;;;;;;;;26.36;100.00;98880.19;4809547;29;20252;-71
2022/07/12 09:58:22;;;;;;;;;;;;;;;26.66;100.00;98876.84;4809411;29;19958;-71
2022/07/12 10:00:53;;;;;;;;;;;;;;;27.03;100.00;98876.50;4809141;29;19956;-71
2022/07/12 10:03:22;;;;;;;;;;;;;;;26.99;100.00;98875.91;4809256;29;19969;-71
2022/07/12 10:05:50;;;;;;;;;;;;;;;26.50;100.00;98879.41;4809507;29;19962;-71
2022/07/12 10:08:19;;;;;;;;;;;;;;;26.87;100.00;98868.41;4808993;29;19950;-71
2022/07/12 10:10:47;;;;;;;;;;;;;;;26.78;100.00;98860.66;4809369;29;19946;-71
2022/07/12 10:13:15;;;;;;;;;;;;;;;27.00;100.00;98860.25;4793644;29;19949;-71
2022/07/12 10:15:44;;;;;;;;;;;;;;;27.06;100.00;98861.16;4809608;29;19952;-71
2022/07/12 10:18:15;;;;;;;;;;;;;;;26.95;100.00;98856.00;4809442;29;19951;-71
2022/07/12 10:20:45;;;;;;;;;;;;;;;27.07;100.00;98854.91;4808625;29;19947;-71
2022/07/12 10:23:33;;;;;;;;;;;;;;;27.18;100.00;98858.00;4808883;29;20270;-71
2022/07/12 10:26:21;;;;;;;;;;;;;;;27.16;100.00;98856.91;4809560;29;19950;-71
2022/07/12 10:28:54;;;;;;;;;;;;;;;27.39;100.00;98855.22;4808997;29;19952;-71
2022/07/12 10:31:23;;;;;;;;;;;;;;;27.31;100.00;98849.06;4809228;29;19952;-71
2022/07/12 10:34:10;;;;;;;;;;;;;;;27.55;100.00;98854.66;4809008;29;19946;-71
2022/07/12 10:36:56;;;;;;;;;;;;;;;27.69;100.00;98842.31;4808593;29;19949;-71
2022/07/12 10:39:41;;;;;;;;;;;;;;;27.76;100.00;98841.91;4809970;29;20339;-71
2022/07/12 10:42:08;;;;;;;;;;;;;;;27.89;100.00;98846.03;4812534;29;20354;-71
2022/07/12 10:44:41;;;;;;;;;;;;;;;27.99;100.00;98847.47;4812300;29;19949;-71
2022/07/12 10:47:08;;;;;;;;;;;;;;;27.97;100.00;98852.13;4812063;29;19954;-71
2022/07/12 10:49:36;;;;;;;;;;;;;;;27.96;100.00;98841.91;4812920;29;20337;-71
2022/07/12 10:52:06;;;;;;;;;;;;;;;27.68;100.00;98850.16;4812451;29;19971;-71
2022/07/12 10:54:33;;;;;;;;;;;;;;;27.18;100.00;98842.84;4812495;29;20357;-71
2022/07/12 10:57:01;;;;;;;;;;;;;;;27.18;99.85;98834.22;4811990;29;20371;-71
2022/07/12 10:59:29;;;;;;;;;;;;;;;27.44;100.00;98838.03;4812205;29;19967;-71
2022/07/12 11:01:56;;;;;;;;;;;;;;;27.53;99.73;98843.69;4811374;29;19968;-71
2022/07/12 11:04:24;;;;;;;;;;;;;;;27.85;99.40;98836.81;4811581;29;20257;-71
2022/07/12 11:06:55;;;;;;;;;;;;;;;27.85;100.00;98836.81;4812088;29;20040;-71
2022/07/12 11:09:23;;;;;;;;;;;;;;;27.69;98.03;98833.72;4812272;29;19957;-71
2022/07/12 11:11:51;;;;;;;;;;;;;;;27.78;96.91;98834.38;4811744;29;19953;-71
2022/07/12 11:14:22;;;;;;;;;;;;;;;27.95;99.20;98825.97;4812273;29;19955;-71
2022/07/12 11:16:51;;;;;;;;;;;;;;;28.11;99.63;98827.50;4811806;29;19962;-71
2022/07/12 11:19:25;;;;;;;;;;;;;;;28.36;99.21;98821.81;4811975;29;19952;-71
2022/07/12 11:21:56;;;;;;;;;;;;;;;28.31;90.59;98818.84;4811687;29;20274;-71
2022/07/12 11:24:25;;;;;;;;;;;;;;;28.25;97.45;98818.00;4796655;29;19958;-71
2022/07/12 11:26:52;;;;;;;;;;;;;;;28.26;92.24;98813.81;4811115;29;19969;-71
2022/07/12 11:29:20;;;;;;;;;;;;;;;28.27;90.29;98818.28;4795555;29;19953;-71
2022/07/12 11:31:47;;;;;;;;;;;;;;;28.37;96.68;98811.84;4811675;29;19949;-72
2022/07/12 11:34:22;;;;;;;;;;;;;;;27.95;90.87;98811.59;4812131;29;19945;-71
2022/07/12 11:36:56;;;;;;;;;;;;;;;28.26;96.15;98805.19;4811428;29;19955;-71
2022/07/12 11:39:35;;;;;;;;;;;;;;;27.84;89.61;98802.81;4811347;29;19978;-71
2022/07/12 11:42:04;;;;;;;;;;;;;;;27.95;92.18;98814.47;4795678;29;19950;-71
2022/07/12 11:44:50;;;;;;;;;;;;;;;28.20;90.68;98802.25;4811975;29;20242;-71
2022/07/12 11:47:18;;;;;;;;;;;;;;;28.39;87.47;98811.38;4811842;29;20218;-71
2022/07/12 11:49:47;;;;;;;;;;;;;;;28.42;91.78;98814.00;4811496;29;19950;-71
2022/07/12 11:52:17;;;;;;;;;;;;;;;28.43;91.28;98806.19;4811317;29;20271;-71
2022/07/12 11:54:44;;;;;;;;;;;;;;;28.59;89.20;98808.41;4811536;29;19970;-71
2022/07/12 11:57:12;;;;;;;;;;;;;;;28.68;86.12;98802.53;4811051;29;19951;-71
2022/07/12 11:59:40;;;;;;;;;;;;;;;28.83;87.33;98808.94;4811439;29;19953;-72
2022/07/12 12:02:08;;;;;;;;;;;;;;;29.01;89.61;98799.94;4811167;29;19949;-71
2022/07/12 12:04:48;;;;;;;;;;;;;;;28.91;91.12;98801.44;4811194;29;19950;-71
2022/07/12 12:07:18;;;;;;;;;;;;;;;29.14;88.07;98794.56;4810656;29;21461;-71
2022/07/12 12:10:04;;;;;;;;;;;;;;;29.33;86.77;98792.09;4810766;29;20352;-71
2022/07/12 12:12:38;;;;;;;;;;;;;;;29.12;85.75;98794.28;4811043;29;19952;-71
2022/07/12 12:15:07;;;;;;;;;;;;;;;28.98;87.67;98791.53;4810593;29;20349;-71
2022/07/12 12:17:36;;;;;;;;;;;;;;;28.88;85.58;98795.91;4811290;29;20617;-71
2022/07/12 12:20:13;;;;;;;;;;;;;;;28.77;87.07;98793.72;4810938;29;19960;-71
2022/07/12 12:22:42;;;;;;;;;;;;;;;28.82;90.63;98784.34;4810946;29;19970;-71
2022/07/12 12:25:15;;;;;;;;;;;;;;;28.78;87.46;98783.00;4810622;29;19948;-72
2022/07/12 12:27:44;;;;;;;;;;;;;;;28.80;91.39;98781.19;4810405;29;19953;-71
2022/07/12 12:30:30;;;;;;;;;;;;;;;28.74;92.28;98780.34;4811206;29;19957;-71
2022/07/12 12:32:58;;;;;;;;;;;;;;;28.79;91.97;98776.72;4810567;29;19949;-71
2022/07/12 12:35:32;;;;;;;;;;;;;;;28.76;91.03;98777.75;4810608;29;20370;-71
2022/07/12 12:38:01;;;;;;;;;;;;;;;28.75;93.11;98773.28;4810203;29;20107;-71
2022/07/12 12:40:32;;;;;;;;;;;;;;;28.83;95.18;98776.50;4810397;29;19962;-71
2022/07/12 12:43:13;;;;;;;;;;;;;;;28.83;92.85;98776.50;4810879;29;19964;-71
2022/07/12 12:45:50;;;;;;;;;;;;;;;28.61;90.23;98774.22;4811095;29;19960;-71
2022/07/12 12:48:21;;;;;;;;;;;;;;;28.67;93.36;98777.94;4795077;29;20256;-71
2022/07/12 12:50:50;;;;;;;;;;;;;;;28.52;94.09;98765.72;4810449;29;19986;-71
2022/07/12 12:53:18;;;;;;;;;;;;;;;28.51;91.44;98762.03;4810227;29;19958;-72
2022/07/12 12:55:48;;;;;;;;;;;;;;;28.44;93.16;98758.84;4810014;29;19951;-72
2022/07/12 12:58:15;;;;;;;;;;;;;;;28.59;96.26;98754.53;4810018;29;19957;-72
2022/07/12 13:00:44;;;;;;;;;;;;;;;28.45;90.90;98752.59;4809908;29;19947;-71
2022/07/12 13:03:13;;;;;;;;;;;;;;;28.64;96.90;98750.16;4809201;29;19969;-71
2022/07/12 13:05:41;;;;;;;;;;;;;;;28.39;90.07;98763.22;4809645;29;19955;-71
2022/07/12 13:08:09;;;;;;;;;;;;;;;28.42;90.55;98756.47;4809719;29;19959;-71
2022/07/12 13:10:37;;;;;;;;;;;;;;;28.62;95.56;98749.88;4810575;29;19977;-71
2022/07/12 13:13:05;;;;;;;;;;;;;;;28.60;98.89;98750.41;4809925;29;20249;-72
2022/07/12 13:15:32;;;;;;;;;;;;;;;28.57;90.01;98745.63;4809626;29;19953;-71
2022/07/12 13:18:01;;;;;;;;;;;;;;;28.65;93.86;98746.00;4793836;29;19985;-71
2022/07/12 13:20:29;;;;;;;;;;;;;;;28.69;94.62;98740.00;4810297;29;19953;-71
2022/07/12 13:22:56;;;;;;;;;;;;;;;28.76;90.05;98742.44;4809458;29;19975;-71
2022/07/12 13:25:25;;;;;;;;;;;;;;;28.87;90.46;98734.66;4809632;29;19948;-71
2022/07/12 13:27:52;;;;;;;;;;;;;;;28.79;91.51;98738.50;4809852;29;19951;-71
2022/07/12 13:30:20;;;;;;;;;;;;;;;28.67;89.62;98739.72;4809715;29;19949;-71
2022/07/12 13:32:47;;;;;;;;;;;;;;;28.66;88.77;98727.41;4810029;29;19960;-71
2022/07/12 13:35:15;;;;;;;;;;;;;;;28.87;89.66;98725.22;4809745;29;19947;-71
2022/07/12 13:37:42;;;;;;;;;;;;;;;28.78;89.99;98720.47;4809861;29;19969;-71
2022/07/12 13:40:16;;;;;;;;;;;;;;;28.88;94.89;98715.31;4809260;29;19953;-71
2022/07/12 13:42:45;;;;;;;;;;;;;;;28.64;89.29;98719.28;4809328;29;19955;-71
2022/07/12 13:45:16;;;;;;;;;;;;;;;28.66;88.95;98720.88;4809467;29;19980;-71
2022/07/12 13:47:44;;;;;;;;;;;;;;;28.65;88.90;98711.47;4809027;29;19950;-71
2022/07/12 13:50:13;;;;;;;;;;;;;;;28.66;92.50;98713.03;4809063;29;20319;-71
2022/07/12 13:52:41;;;;;;;;;;;;;;;28.70;94.39;98707.84;4809274;29;19972;-71
2022/07/12 13:55:09;;;;;;;;;;;;;;;28.69;90.26;98705.44;4808763;29;19950;-71
2022/07/12 13:57:37;;;;;;;;;;;;;;;28.76;94.27;98711.53;4805721;29;19950;-71
2022/07/12 14:00:08;;;;;;;;;;;;;;;28.81;85.83;98702.16;4800286;29;19949;-71
2022/07/12 14:02:38;;;;;;;;;;;;;;;28.79;87.29;98698.22;4808875;29;19955;-69
2022/07/12 14:05:07;;;;;;;;;;;;;;;28.86;90.46;98694.84;4807493;29;19967;-71
2022/07/12 14:07:36;;;;;;;;;;;;;;;28.88;89.19;98693.03;4801019;29;19949;-71
2022/07/12 14:10:04;;;;;;;;;;;;;;;28.87;92.63;98700.13;4806051;29;19951;-71
2022/07/12 14:12:32;;;;;;;;;;;;;;;28.88;92.28;98692.28;4808829;29;19969;-71
2022/07/12 14:17:39;;;;;;;;;;;;;;;28.83;88.75;98690.16;4806189;29;19953;-71
2022/07/12 14:20:07;;;;;;;;;;;;;;;28.85;86.99;98678.91;4806855;29;19955;-71
2022/07/12 14:22:35;;;;;;;;;;;;;;;28.72;85.49;98670.69;4809086;29;19956;-71
2022/07/12 14:25:03;;;;;;;;;;;;;;;28.68;88.95;98667.28;4809109;29;19967;-70
2022/07/12 14:27:34;;;;;;;;;;;;;;;28.67;88.82;98673.53;4808405;29;19958;-71
2022/07/12 14:30:03;;;;;;;;;;;;;;;28.67;91.44;98664.88;4807319;29;19953;-71
2022/07/12 14:32:31;;;;;;;;;;;;;;;28.56;87.18;98663.47;4805810;29;20344;-71
2022/07/12 14:34:58;;;;;;;;;;;;;;;28.66;88.25;98658.34;4807041;29;19957;-71
2022/07/12 14:37:25;;;;;;;;;;;;;;;28.62;86.02;98663.53;4807327;29;19950;-71
2022/07/12 14:39:52;;;;;;;;;;;;;;;28.62;87.05;98657.78;4807841;29;20242;-71
2022/07/12 14:42:20;;;;;;;;;;;;;;;28.63;87.18;98660.16;4806427;29;19949;-71
2022/07/12 14:44:47;;;;;;;;;;;;;;;28.71;86.49;98653.94;4807432;29;19992;-71
2022/07/12 14:47:18;;;;;;;;;;;;;;;28.72;86.46;98647.66;4805879;29;19951;-71
2022/07/12 14:49:46;;;;;;;;;;;;;;;28.78;88.41;98651.38;4805475;29;19945;-71
2022/07/12 14:52:13;;;;;;;;;;;;;;;28.72;90.30;98646.88;4804779;29;19974;-71
2022/07/12 14:54:40;;;;;;;;;;;;;;;28.74;86.00;98641.38;4802703;29;20285;-71
2022/07/12 14:57:08;;;;;;;;;;;;;;;28.80;85.50;98643.03;4789959;29;19956;-71
2022/07/12 14:59:35;;;;;;;;;;;;;;;28.88;89.62;98635.47;4807628;29;19952;-71
2022/07/12 15:02:03;;;;;;;;;;;;;;;28.94;84.62;98642.06;4804717;29;19968;-71
2022/07/12 15:04:30;;;;;;;;;;;;;;;28.70;83.49;98633.00;4800857;29;20272;-71